Time;durP1;ratioP1;P1;durP2;ratioP2;P2;SDS_P1;SDS_P2;PMS_P1;PMS_P2;Temp;Humidity;BMP_temperature;BMP_pressure;BME280_temperature;BME280_humidity;BME280_pressure;Samples;Min_cycle;Max_cycle;Signal;HPM_P1;HPM_P2
2021/01/06 01:39:03;;;;;;;39.88;17.08;;;3.50;99.90;;;;;;6321032;22;20084;-80
2021/01/06 05:55:24;;;;;;;16.55;9.43;;;2.50;99.90;;;;;;6303450;22;20041;-81
2021/01/06 05:58:03;;;;;;;16.17;9.60;;;2.50;99.90;;;;;;6318393;22;20449;-80
2021/01/06 06:05:46;;;;;;;17.13;9.77;;;2.50;99.90;;;;;;6338853;22;20452;-82
2021/01/06 06:08:44;;;;;;;14.32;8.85;;;2.50;99.90;;;;;;6337174;22;20019;-83
2021/01/06 06:12:00;;;;;;;18.30;10.40;;;2.70;99.90;;;;;;6362537;22;20022;-83
2021/01/06 06:15:14;;;;;;;16.67;10.05;;;2.60;99.90;;;;;;6323862;22;20021;-83
2021/01/06 06:54:14;;;;;;;15.65;9.05;;;2.80;99.90;;;;;;6324920;22;20007;-82
2021/01/06 07:14:57;;;;;;;20.23;11.25;;;2.70;99.90;;;;;;6301006;22;20003;-82
2021/01/06 07:17:34;;;;;;;19.30;10.63;;;2.90;99.90;;;;;;6278028;22;20050;-78
2021/01/06 07:20:06;;;;;;;19.42;10.30;;;2.90;99.90;;;;;;6280569;22;20102;-79
2021/01/06 07:22:37;;;;;;;18.88;11.07;;;2.90;99.90;;;;;;6308077;22;20456;-79
2021/01/06 07:25:21;;;;;;;18.77;11.10;;;2.80;99.90;;;;;;6308254;22;20023;-79
2021/01/06 07:27:52;;;;;;;22.60;11.63;;;2.90;99.90;;;;;;6281806;22;20479;-78
2021/01/06 07:30:30;;;;;;;18.98;11.00;;;2.90;99.90;;;;;;6307889;22;20531;-78
2021/01/06 07:32:58;;;;;;;19.38;11.30;;;2.90;99.90;;;;;;6306274;22;20027;-79
2021/01/06 07:35:28;;;;;;;20.10;11.13;;;2.90;99.90;;;;;;6307558;22;20547;-78
2021/01/06 07:37:59;;;;;;;19.35;10.82;;;2.90;99.90;;;;;;6308915;22;20038;-79
2021/01/06 07:40:31;;;;;;;20.92;10.70;;;2.80;99.90;;;;;;6309741;22;20102;-79
2021/01/06 07:43:22;;;;;;;20.67;10.38;;;2.70;99.90;;;;;;6309404;22;20106;-78
2021/01/06 07:46:10;;;;;;;19.38;10.70;;;2.70;99.90;;;;;;6308530;22;20038;-79
2021/01/06 07:49:32;;;;;;;20.70;11.23;;;2.70;99.90;;;;;;6308024;22;20065;-80
2021/01/06 07:52:03;;;;;;;18.95;10.73;;;2.60;99.90;;;;;;6274170;22;20068;-79
2021/01/06 07:54:40;;;;;;;20.38;11.73;;;2.60;99.90;;;;;;6314655;22;20023;-81
2021/01/06 07:57:19;;;;;;;19.30;11.15;;;2.60;99.90;;;;;;6315504;22;20023;-79
2021/01/06 07:59:53;;;;;;;19.33;11.05;;;2.50;99.90;;;;;;6312731;22;20074;-77
2021/01/06 08:02:45;;;;;;;20.70;11.30;;;2.50;99.90;;;;;;6333495;22;20007;-81
2021/01/06 08:05:26;;;;;;;21.65;12.18;;;2.50;99.90;;;;;;6335188;22;20047;-80
2021/01/06 08:08:05;;;;;;;18.90;11.13;;;2.50;99.90;;;;;;6335684;22;20026;-79
2021/01/06 08:10:33;;;;;;;19.80;11.25;;;2.50;99.90;;;;;;6329693;22;20054;-79
2021/01/06 08:13:26;;;;;;;20.95;11.00;;;2.60;99.90;;;;;;6335239;22;20026;-80
2021/01/06 08:15:56;;;;;;;20.25;11.65;;;2.60;99.90;;;;;;6327056;22;20011;-77
2021/01/06 08:18:50;;;;;;;19.05;10.27;;;2.60;99.90;;;;;;6307572;22;20098;-76
2021/01/06 08:21:27;;;;;;;21.27;11.73;;;2.50;99.90;;;;;;6306992;22;20026;-78
2021/01/06 08:24:12;;;;;;;23.60;12.40;;;2.50;99.90;;;;;;6307729;22;20042;-77
2021/01/06 08:26:48;;;;;;;23.63;12.15;;;2.50;99.90;;;;;;6307327;22;20027;-78
2021/01/06 08:29:20;;;;;;;20.88;11.52;;;2.50;99.90;;;;;;6311017;22;20095;-78
2021/01/06 08:31:49;;;;;;;21.38;12.07;;;2.50;99.90;;;;;;6311588;22;20042;-77
2021/01/06 08:34:30;;;;;;;23.40;12.77;;;2.50;99.90;;;;;;6310769;22;20469;-77
2021/01/06 08:37:02;;;;;;;23.00;11.88;;;2.50;99.90;;;;;;6310831;22;20051;-76
2021/01/06 08:39:32;;;;;;;21.85;11.52;;;2.40;99.90;;;;;;6312303;22;20054;-77
2021/01/06 08:42:16;;;;;;;21.50;11.60;;;2.50;99.90;;;;;;6311177;22;20030;-77
2021/01/06 08:44:46;;;;;;;22.00;11.90;;;2.50;99.90;;;;;;6310208;22;20383;-78
2021/01/06 08:47:27;;;;;;;21.55;12.18;;;2.50;99.90;;;;;;6307680;22;20094;-77
2021/01/06 08:49:54;;;;;;;22.08;12.27;;;2.60;99.90;;;;;;6308401;22;20053;-77
2021/01/06 08:52:27;;;;;;;23.77;12.07;;;2.50;99.90;;;;;;6310048;22;20080;-77
2021/01/06 08:55:19;;;;;;;31.15;14.75;;;2.50;99.90;;;;;;6311600;22;20051;-77
2021/01/06 08:57:45;;;;;;;20.33;11.23;;;2.50;99.90;;;;;;6309797;22;20049;-77
2021/01/06 09:00:24;;;;;;;19.30;10.90;;;2.50;99.90;;;;;;6308369;22;20047;-77
2021/01/06 09:02:54;;;;;;;21.00;10.70;;;2.50;99.90;;;;;;6307701;22;20098;-78
2021/01/06 09:05:50;;;;;;;21.95;11.07;;;2.60;99.90;;;;;;6307382;22;20683;-77
2021/01/06 09:08:20;;;;;;;22.20;12.45;;;2.50;99.90;;;;;;6307652;22;20050;-78
2021/01/06 09:11:05;;;;;;;24.30;11.63;;;2.40;99.90;;;;;;6304724;22;20022;-76
2021/01/06 09:13:37;;;;;;;21.65;11.68;;;2.40;99.90;;;;;;6307376;22;20069;-78
2021/01/06 09:16:12;;;;;;;22.17;11.60;;;2.40;99.90;;;;;;6311800;22;20065;-77
2021/01/06 09:18:45;;;;;;;21.40;11.82;;;2.50;99.90;;;;;;6327312;22;20029;-79
2021/01/06 09:21:22;;;;;;;22.27;11.75;;;2.50;99.90;;;;;;6324582;22;20053;-80
2021/01/06 09:24:00;;;;;;;24.25;12.38;;;2.50;99.90;;;;;;6322164;22;20057;-76
2021/01/06 09:26:28;;;;;;;22.45;11.52;;;2.60;99.90;;;;;;6319851;22;20074;-80
2021/01/06 09:29:06;;;;;;;21.70;11.15;;;2.80;99.90;;;;;;6316903;22;20079;-81
2021/01/06 09:31:41;;;;;;;23.98;11.77;;;2.60;99.90;;;;;;6318876;22;20050;-79
2021/01/06 09:34:11;;;;;;;20.90;11.25;;;2.60;99.90;;;;;;6327886;22;20526;-80
2021/01/06 09:36:39;;;;;;;22.15;11.57;;;2.70;99.90;;;;;;6320125;22;20046;-80
2021/01/06 09:39:14;;;;;;;22.70;11.93;;;2.50;99.90;;;;;;6317957;22;20021;-79
2021/01/06 09:41:41;;;;;;;21.25;11.60;;;2.50;99.90;;;;;;6322206;22;20030;-78
2021/01/06 09:59:45;;;;;;;20.90;11.10;;;2.60;99.90;;;;;;6333759;22;20414;-80
2021/01/06 10:05:45;;;;;;;20.88;11.60;;;2.70;99.90;;;;;;6327922;22;20061;-81
2021/01/06 10:08:26;;;;;;;17.95;11.20;;;2.70;99.90;;;;;;6335630;22;20003;-80
2021/01/06 10:11:01;;;;;;;19.23;11.30;;;2.60;99.90;;;;;;6335601;22;20003;-81
2021/01/06 10:24:20;;;;;;;20.50;11.77;;;2.70;99.90;;;;;;6348616;22;20006;-82
2021/01/06 10:34:39;;;;;;;19.58;11.45;;;2.60;99.90;;;;;;6324440;22;20013;-81
2021/01/06 11:21:16;;;;;;;16.35;9.43;;;2.60;99.90;;;;;;6295531;22;20023;-79
2021/01/06 11:31:32;;;;;;;15.07;9.70;;;2.50;99.90;;;;;;6305997;22;20841;-80
2021/01/06 11:34:28;;;;;;;15.07;9.23;;;2.80;99.90;;;;;;6355269;22;20563;-79
2021/01/06 11:36:59;;;;;;;14.70;9.18;;;2.50;99.90;;;;;;6363510;22;20011;-81
2021/01/06 11:39:49;;;;;;;17.85;9.40;;;2.50;99.90;;;;;;6368974;22;20007;-81
2021/01/06 11:42:18;;;;;;;15.93;10.15;;;2.40;99.90;;;;;;6354193;22;20124;-81
2021/01/06 11:45:05;;;;;;;17.30;10.30;;;2.70;99.90;;;;;;6368240;22;20006;-81
2021/01/06 11:47:37;;;;;;;16.27;10.50;;;2.60;99.90;;;;;;6364067;22;20007;-81
2021/01/06 11:50:28;;;;;;;17.55;10.45;;;2.60;99.90;;;;;;6368212;22;20010;-82
2021/01/06 11:53:13;;;;;;;16.33;10.43;;;2.70;99.90;;;;;;6368899;22;20003;-82
2021/01/06 12:09:07;;;;;;;16.58;10.15;;;2.80;99.90;;;;;;6359039;22;20227;-79
2021/01/06 12:11:41;;;;;;;15.38;9.77;;;2.80;99.90;;;;;;6364570;22;20029;-81
2021/01/06 12:14:27;;;;;;;15.57;9.95;;;2.80;99.90;;;;;;6362016;22;20026;-79
2021/01/06 12:19:37;;;;;;;14.93;9.50;;;2.80;99.90;;;;;;6303532;22;20015;-80
2021/01/06 12:22:17;;;;;;;15.70;9.32;;;2.80;99.90;;;;;;6367434;22;20030;-82
2021/01/06 12:25:03;;;;;;;15.00;8.77;;;2.70;99.90;;;;;;6366104;22;20026;-81
2021/01/06 12:32:52;;;;;;;14.43;9.30;;;2.70;99.90;;;;;;6289137;22;20020;-80
2021/01/06 12:35:28;;;;;;;14.60;9.00;;;2.70;99.90;;;;;;6294712;22;20039;-80
2021/01/06 12:38:06;;;;;;;14.57;9.18;;;2.70;99.90;;;;;;6293538;22;20063;-78
2021/01/06 12:40:37;;;;;;;15.35;9.45;;;2.60;99.90;;;;;;6288913;22;20038;-81
2021/01/06 12:43:19;;;;;;;15.02;9.48;;;2.80;99.90;;;;;;6305355;22;20018;-82
2021/01/06 12:56:24;;;;;;;14.75;9.18;;;2.70;99.90;;;;;;6297864;22;20034;-78
2021/01/06 12:59:10;;;;;;;14.93;9.65;;;2.60;99.90;;;;;;6322284;22;20069;-81
2021/01/06 13:02:36;;;;;;;14.70;9.18;;;2.80;99.90;;;;;;6273852;22;20059;-81
2021/01/06 13:05:34;;;;;;;14.00;8.75;;;2.70;99.90;;;;;;6335364;22;20003;-81
2021/01/06 13:08:07;;;;;;;14.63;9.25;;;2.60;99.90;;;;;;6307989;22;20050;-81
2021/01/06 13:10:45;;;;;;;15.40;9.35;;;2.50;99.90;;;;;;6332362;22;20019;-81
2021/01/06 13:13:29;;;;;;;16.42;9.77;;;2.60;99.90;;;;;;6333218;22;20024;-80
2021/01/06 13:16:10;;;;;;;16.37;9.50;;;2.80;99.90;;;;;;6330701;22;20029;-81
2021/01/06 13:18:49;;;;;;;14.52;8.95;;;2.50;99.90;;;;;;6324447;22;20516;-80
2021/01/06 13:21:31;;;;;;;13.98;9.18;;;2.60;99.90;;;;;;6294395;22;20310;-80
2021/01/06 13:24:10;;;;;;;14.80;8.75;;;2.50;99.90;;;;;;6330305;22;20034;-80
2021/01/06 13:27:00;;;;;;;14.23;8.68;;;2.60;99.90;;;;;;6332496;22;20014;-81
2021/01/06 13:29:38;;;;;;;14.77;9.18;;;2.50;99.90;;;;;;6333947;22;20293;-81
2021/01/06 13:32:14;;;;;;;18.52;9.63;;;2.80;99.90;;;;;;6328087;22;20018;-81
2021/01/06 13:34:51;;;;;;;14.00;8.90;;;2.70;99.90;;;;;;6330874;22;20038;-81
2021/01/06 13:37:42;;;;;;;13.68;8.25;;;2.50;99.90;;;;;;6305327;22;20023;-81
2021/01/06 13:40:22;;;;;;;12.65;8.02;;;2.60;99.90;;;;;;6304888;22;20045;-82
2021/01/06 13:43:27;;;;;;;14.40;9.07;;;2.60;99.90;;;;;;6304579;22;20085;-80
2021/01/06 13:46:23;;;;;;;14.93;9.40;;;2.70;99.90;;;;;;6263784;22;20027;-80
2021/01/06 13:49:07;;;;;;;13.20;8.30;;;2.70;99.90;;;;;;6327753;22;20108;-81
2021/01/06 13:51:51;;;;;;;14.85;8.95;;;2.80;99.90;;;;;;6335582;22;20041;-80
2021/01/06 13:54:45;;;;;;;13.95;8.60;;;2.80;99.90;;;;;;6335870;22;20019;-81
2021/01/06 13:57:28;;;;;;;13.35;8.48;;;2.80;99.90;;;;;;6334661;22;20022;-82
2021/01/06 14:00:12;;;;;;;12.32;8.07;;;2.90;99.90;;;;;;6309343;22;20019;-82
2021/01/06 14:03:05;;;;;;;14.60;9.32;;;2.80;99.90;;;;;;6336780;22;20003;-82
2021/01/06 14:05:38;;;;;;;14.63;8.90;;;2.70;99.90;;;;;;6335992;22;20003;-81
2021/01/06 14:08:23;;;;;;;14.23;9.32;;;2.90;99.90;;;;;;6335782;22;20046;-82
2021/01/06 14:13:56;;;;;;;17.35;10.90;;;2.80;99.90;;;;;;6327396;22;20030;-81
2021/01/06 14:16:37;;;;;;;15.57;10.32;;;2.70;99.90;;;;;;6341309;22;19998;-81
2021/01/06 14:19:33;;;;;;;19.73;12.30;;;2.70;99.90;;;;;;6344525;22;20219;-80
2021/01/06 14:22:08;;;;;;;19.20;11.90;;;2.70;99.90;;;;;;6343767;22;20038;-81
2021/01/06 14:24:36;;;;;;;15.38;9.75;;;2.80;99.90;;;;;;6342397;22;20347;-80
2021/01/06 14:27:34;;;;;;;18.52;11.20;;;2.70;99.90;;;;;;6340932;22;20023;-80
2021/01/06 14:30:15;;;;;;;15.35;10.02;;;2.60;99.90;;;;;;6344750;22;20014;-82
2021/01/06 14:32:47;;;;;;;17.92;10.88;;;2.70;99.90;;;;;;6330382;22;20019;-81
2021/01/06 14:35:40;;;;;;;17.77;11.40;;;2.70;99.90;;;;;;6305681;22;20030;-81
2021/01/06 14:38:17;;;;;;;17.42;11.13;;;2.60;99.90;;;;;;6330336;22;20056;-82
2021/01/06 14:40:50;;;;;;;18.02;11.95;;;2.80;99.90;;;;;;6356857;22;20027;-82
2021/01/06 14:43:50;;;;;;;16.42;10.82;;;2.80;99.90;;;;;;6353886;22;20494;-82
2021/01/06 14:46:39;;;;;;;17.67;10.32;;;2.90;99.90;;;;;;6351514;22;20050;-81
2021/01/06 14:49:17;;;;;;;16.80;10.93;;;3.00;99.90;;;;;;6352266;22;20030;-82
2021/01/06 14:51:59;;;;;;;17.40;11.13;;;3.00;99.90;;;;;;6328918;22;20029;-82
2021/01/06 14:54:48;;;;;;;18.20;11.07;;;3.00;99.90;;;;;;6359748;22;20018;-81
2021/01/06 14:57:36;;;;;;;17.60;11.10;;;2.90;99.90;;;;;;6348462;22;20025;-81
2021/01/06 15:00:40;;;;;;;17.25;11.10;;;2.90;99.90;;;;;;6346370;22;20506;-81
2021/01/06 15:03:30;;;;;;;17.20;10.55;;;3.00;99.90;;;;;;6322717;22;20540;-80
2021/01/06 15:06:09;;;;;;;18.30;11.55;;;3.00;99.90;;;;;;6346418;22;20488;-81
2021/01/06 15:08:59;;;;;;;29.40;16.88;;;2.90;99.90;;;;;;6356228;22;20026;-82
2021/01/06 15:11:34;;;;;;;16.30;10.20;;;2.90;99.90;;;;;;6339288;22;20045;-83
2021/01/06 15:14:07;;;;;;;16.88;10.90;;;2.90;99.90;;;;;;6364023;22;20022;-82
2021/01/06 15:16:38;;;;;;;15.45;9.63;;;2.90;99.90;;;;;;6361950;22;20026;-81
2021/01/06 15:19:11;;;;;;;15.55;9.60;;;2.80;99.90;;;;;;6346729;22;20039;-81
2021/01/06 15:21:43;;;;;;;15.52;9.65;;;2.80;99.90;;;;;;6346930;22;20019;-80
2021/01/06 15:24:30;;;;;;;16.80;10.35;;;2.90;99.90;;;;;;6358001;22;20010;-81
2021/01/06 15:27:00;;;;;;;19.25;10.98;;;2.90;99.90;;;;;;6346039;22;20026;-80
2021/01/06 15:29:39;;;;;;;17.30;10.55;;;2.90;99.90;;;;;;6347167;22;20048;-80
2021/01/06 15:32:24;;;;;;;15.15;9.65;;;2.90;99.90;;;;;;6347267;22;20042;-81
2021/01/06 15:34:53;;;;;;;14.98;9.55;;;2.90;99.90;;;;;;6349465;22;20075;-80
2021/01/06 15:37:29;;;;;;;16.48;10.13;;;2.90;99.90;;;;;;6316660;22;20695;-79
2021/01/06 15:40:01;;;;;;;16.33;10.40;;;2.80;99.90;;;;;;6347926;22;20030;-78
2021/01/06 15:42:30;;;;;;;13.88;9.55;;;2.80;99.90;;;;;;6347584;22;20043;-78
2021/01/06 15:45:00;;;;;;;14.57;9.73;;;2.70;99.90;;;;;;6346440;22;20090;-77
2021/01/06 15:47:32;;;;;;;16.08;9.88;;;2.70;99.90;;;;;;6354697;22;20026;-79
2021/01/06 15:50:05;;;;;;;16.27;9.68;;;2.70;99.90;;;;;;6359091;22;20019;-79
2021/01/06 15:52:35;;;;;;;15.23;9.88;;;2.60;99.90;;;;;;6348093;22;20118;-79
2021/01/06 15:55:18;;;;;;;15.57;9.38;;;2.60;99.90;;;;;;6343465;22;20022;-78
2021/01/06 15:57:47;;;;;;;15.77;10.18;;;2.50;99.90;;;;;;6342554;22;20023;-79
2021/01/06 16:00:18;;;;;;;14.77;9.10;;;2.50;99.90;;;;;;6343407;22;20046;-80
2021/01/06 16:02:46;;;;;;;15.15;9.60;;;2.50;99.90;;;;;;6341736;22;20093;-79
2021/01/06 16:05:26;;;;;;;13.90;9.05;;;2.50;99.90;;;;;;6343351;22;20102;-79
2021/01/06 16:07:54;;;;;;;16.17;9.50;;;2.60;99.90;;;;;;6343003;22;20371;-79
2021/01/06 16:10:34;;;;;;;15.38;9.68;;;2.50;99.90;;;;;;6343995;22;20120;-79
2021/01/06 16:13:25;;;;;;;14.52;9.48;;;2.50;99.90;;;;;;6356006;22;20006;-80
2021/01/06 16:16:00;;;;;;;14.45;9.57;;;2.50;99.90;;;;;;6296705;22;20019;-78
2021/01/06 16:18:34;;;;;;;15.27;10.05;;;2.50;99.90;;;;;;6303177;22;20110;-78
2021/01/06 16:21:09;;;;;;;15.13;9.57;;;2.50;99.90;;;;;;6294514;22;20041;-80
2021/01/06 16:23:36;;;;;;;14.02;8.75;;;2.60;99.90;;;;;;6299242;22;20008;-81
2021/01/06 16:26:27;;;;;;;14.75;9.85;;;2.50;99.90;;;;;;6303244;22;20024;-82
2021/01/06 16:28:54;;;;;;;15.02;9.60;;;2.60;99.90;;;;;;6302349;22;20071;-80
2021/01/06 16:31:31;;;;;;;16.30;9.88;;;2.50;99.90;;;;;;6301774;22;20057;-82
2021/01/06 16:44:32;;;;;;;15.38;9.85;;;2.50;99.90;;;;;;6306321;22;20063;-82
2021/01/06 16:47:07;;;;;;;15.85;9.70;;;2.50;99.90;;;;;;6288728;22;20030;-79
2021/01/06 16:49:36;;;;;;;14.82;10.07;;;2.60;99.90;;;;;;6287811;22;20047;-81
2021/01/06 16:52:17;;;;;;;16.88;10.57;;;2.70;99.90;;;;;;6292775;22;20039;-81
2021/01/06 16:54:47;;;;;;;15.90;10.02;;;2.80;99.90;;;;;;6254011;22;20019;-79
2021/01/06 16:57:30;;;;;;;14.93;9.32;;;2.80;99.90;;;;;;6251113;22;20046;-79
2021/01/06 16:59:59;;;;;;;15.63;9.82;;;2.90;99.90;;;;;;6277771;22;20024;-80
2021/01/06 17:02:27;;;;;;;14.63;8.98;;;3.10;99.90;;;;;;6278682;22;20085;-79
2021/01/06 17:04:56;;;;;;;13.63;8.75;;;3.00;99.90;;;;;;6277342;22;20517;-79
2021/01/06 17:07:27;;;;;;;14.23;9.05;;;3.00;99.90;;;;;;6276512;22;20426;-78
2021/01/06 17:09:56;;;;;;;14.02;8.75;;;3.10;99.90;;;;;;6278092;22;20091;-78
2021/01/06 17:12:26;;;;;;;12.50;8.43;;;3.00;99.90;;;;;;6277173;22;20414;-79
2021/01/06 17:14:55;;;;;;;12.48;8.23;;;3.10;99.90;;;;;;6253658;22;20027;-82
2021/01/06 17:17:26;;;;;;;13.02;8.25;;;3.00;99.90;;;;;;6288817;22;20041;-80
2021/01/06 17:20:09;;;;;;;12.43;7.63;;;3.00;99.90;;;;;;6278518;22;20023;-79
2021/01/06 17:22:41;;;;;;;13.20;8.38;;;3.00;99.90;;;;;;6277470;22;20047;-80
2021/01/06 17:25:12;;;;;;;13.15;8.35;;;3.10;99.90;;;;;;6269982;22;20045;-80
2021/01/06 17:27:46;;;;;;;12.70;8.13;;;3.10;99.90;;;;;;6289784;22;20030;-78
2021/01/06 17:30:20;;;;;;;12.90;8.17;;;3.10;99.90;;;;;;6278791;22;20055;-78
2021/01/06 17:33:00;;;;;;;13.80;8.40;;;3.10;99.90;;;;;;6282007;22;20020;-80
2021/01/06 17:35:29;;;;;;;12.88;7.88;;;3.10;99.90;;;;;;6284939;22;20027;-81
2021/01/06 17:38:00;;;;;;;12.20;7.78;;;3.10;99.90;;;;;;6285102;22;20024;-81
2021/01/06 17:40:27;;;;;;;12.05;7.75;;;3.20;99.90;;;;;;6283318;22;20570;-79
2021/01/06 17:42:56;;;;;;;12.57;7.45;;;3.20;99.90;;;;;;6308872;22;20050;-80
2021/01/06 17:48:01;;;;;;;12.77;8.13;;;3.20;99.90;;;;;;6324592;22;20013;-82
2021/01/06 17:50:31;;;;;;;12.20;8.20;;;3.30;99.90;;;;;;6363290;22;20007;-83
2021/01/06 17:53:00;;;;;;;14.02;8.57;;;3.30;99.90;;;;;;6336609;22;20123;-81
2021/01/06 17:55:28;;;;;;;15.15;8.93;;;3.40;99.90;;;;;;6362647;22;20023;-81
2021/01/06 17:58:01;;;;;;;12.98;8.98;;;3.50;99.70;;;;;;6364909;22;20047;-82
2021/01/06 18:00:30;;;;;;;13.45;9.07;;;3.50;99.70;;;;;;6342053;22;20069;-80
2021/01/06 18:02:58;;;;;;;15.35;10.13;;;3.40;99.50;;;;;;6340071;22;20003;-82
2021/01/06 18:05:34;;;;;;;20.15;12.85;;;3.40;99.60;;;;;;6366973;22;20026;-79
2021/01/06 18:08:05;;;;;;;14.85;9.25;;;3.30;99.70;;;;;;6367446;22;20011;-79
2021/01/06 18:10:40;;;;;;;13.40;8.57;;;3.30;99.80;;;;;;6367693;22;20011;-80
2021/01/06 18:13:12;;;;;;;15.40;9.50;;;3.40;99.80;;;;;;6366180;22;20006;-78
2021/01/06 18:15:48;;;;;;;13.55;9.20;;;3.30;99.70;;;;;;6351723;22;20038;-78
2021/01/06 18:18:18;;;;;;;13.65;8.95;;;3.30;99.80;;;;;;6359337;22;20026;-81
2021/01/06 18:20:46;;;;;;;14.07;8.93;;;3.20;99.70;;;;;;6359212;22;20002;-79
2021/01/06 18:23:21;;;;;;;14.55;8.85;;;3.10;99.90;;;;;;6359834;22;20018;-80
2021/01/06 18:25:53;;;;;;;14.20;8.48;;;3.10;99.90;;;;;;6359363;22;20003;-81
2021/01/06 18:46:38;;;;;;;12.32;8.07;;;3.10;99.90;;;;;;6340262;22;20009;-82
2021/01/06 19:09:49;;;;;;;14.57;9.20;;;2.90;99.90;;;;;;6341939;22;20023;-80
2021/01/06 19:12:16;;;;;;;15.75;9.65;;;3.00;99.90;;;;;;6340770;22;20083;-79
2021/01/06 19:14:44;;;;;;;15.02;9.60;;;3.00;99.90;;;;;;6341084;22;20024;-78
2021/01/06 19:17:13;;;;;;;18.67;10.23;;;3.10;99.90;;;;;;6342080;22;20046;-78
2021/01/06 19:19:58;;;;;;;14.57;9.57;;;3.00;99.90;;;;;;6339616;22;20054;-77
2021/01/06 19:22:25;;;;;;;15.90;9.82;;;2.90;99.90;;;;;;6338951;22;20031;-77
2021/01/06 19:24:53;;;;;;;15.55;9.95;;;2.90;99.90;;;;;;6338178;22;20050;-77
2021/01/06 19:27:20;;;;;;;15.85;9.82;;;2.70;99.90;;;;;;6340048;22;20049;-77
2021/01/06 19:29:57;;;;;;;14.82;9.43;;;2.90;99.90;;;;;;6340574;22;20078;-77
2021/01/06 19:32:23;;;;;;;15.15;9.63;;;2.60;99.90;;;;;;6347646;22;20077;-77
2021/01/06 19:34:52;;;;;;;15.38;9.60;;;2.60;99.90;;;;;;6337334;22;20113;-77
2021/01/06 19:37:22;;;;;;;14.27;9.38;;;2.60;99.90;;;;;;6339462;22;20057;-77
2021/01/06 19:39:57;;;;;;;15.13;9.40;;;2.70;99.90;;;;;;6337709;22;20473;-76
2021/01/06 19:42:26;;;;;;;15.20;9.60;;;2.80;99.90;;;;;;6339175;22;20019;-78
2021/01/06 19:44:53;;;;;;;15.18;9.50;;;2.70;99.90;;;;;;6340004;22;20043;-77
2021/01/06 19:47:19;;;;;;;14.77;9.60;;;2.80;99.90;;;;;;6340604;22;20097;-77
2021/01/06 19:49:46;;;;;;;14.40;9.65;;;2.90;99.90;;;;;;6341008;22;20026;-77
2021/01/06 19:52:18;;;;;;;15.75;9.90;;;2.90;99.90;;;;;;6342632;22;20030;-77
2021/01/06 19:54:45;;;;;;;14.98;9.93;;;2.90;99.90;;;;;;6343648;22;20026;-77
2021/01/06 19:57:13;;;;;;;15.27;10.13;;;3.00;99.90;;;;;;6344083;22;20046;-79
2021/01/06 19:59:48;;;;;;;14.57;9.20;;;2.90;99.90;;;;;;6344263;22;20060;-77
2021/01/06 20:02:17;;;;;;;15.70;10.35;;;2.80;99.90;;;;;;6342546;22;20048;-79
2021/01/06 20:04:56;;;;;;;16.88;10.10;;;2.90;99.90;;;;;;6340672;22;20074;-78
2021/01/06 20:07:23;;;;;;;17.20;10.45;;;2.80;99.90;;;;;;6337709;22;20014;-78
2021/01/06 20:09:50;;;;;;;13.32;9.10;;;2.80;99.90;;;;;;6343273;22;20073;-79
2021/01/06 20:12:18;;;;;;;15.63;9.93;;;2.80;99.90;;;;;;6340145;22;20030;-77
2021/01/06 20:14:45;;;;;;;14.43;9.43;;;2.90;99.90;;;;;;6341574;22;20460;-78
2021/01/06 20:17:13;;;;;;;12.55;8.80;;;2.80;99.90;;;;;;6345875;22;20010;-79
2021/01/06 20:19:39;;;;;;;14.00;9.07;;;2.80;99.90;;;;;;6341459;22;20085;-78
2021/01/06 20:22:06;;;;;;;18.85;11.30;;;2.80;99.90;;;;;;6338468;22;20061;-78
2021/01/06 20:24:33;;;;;;;13.88;9.30;;;2.80;99.90;;;;;;6341871;22;20067;-78
2021/01/06 20:27:00;;;;;;;14.32;8.98;;;2.80;99.90;;;;;;6345735;22;20067;-78
2021/01/06 20:29:27;;;;;;;13.52;9.07;;;2.80;99.90;;;;;;6347334;22;20052;-78
2021/01/06 20:31:54;;;;;;;13.90;8.77;;;2.80;99.90;;;;;;6348824;22;20026;-78
2021/01/06 20:34:21;;;;;;;13.20;8.40;;;2.80;99.90;;;;;;6348126;22;20019;-77
2021/01/06 20:36:48;;;;;;;13.65;9.05;;;2.80;99.90;;;;;;6349877;22;20074;-78
2021/01/06 20:39:15;;;;;;;11.90;8.02;;;2.80;99.90;;;;;;6348738;22;20023;-77
2021/01/06 20:41:41;;;;;;;12.13;8.07;;;2.80;99.90;;;;;;6351198;22;20030;-77
2021/01/06 20:44:08;;;;;;;12.88;8.32;;;2.80;99.90;;;;;;6351206;22;20111;-79
2021/01/06 20:46:36;;;;;;;13.45;7.97;;;2.70;99.90;;;;;;6351562;22;20328;-77
2021/01/06 20:49:06;;;;;;;12.40;8.23;;;2.60;99.90;;;;;;6349917;22;20030;-78
2021/01/06 20:51:33;;;;;;;13.98;8.10;;;2.70;99.90;;;;;;6352928;22;20034;-76
2021/01/06 20:53:59;;;;;;;11.98;7.80;;;2.70;99.90;;;;;;6344890;22;20099;-76
2021/01/06 20:56:26;;;;;;;11.55;7.60;;;2.70;99.90;;;;;;6341702;22;20377;-76
2021/01/06 20:58:52;;;;;;;10.55;6.75;;;2.70;99.90;;;;;;6338845;22;20054;-77
2021/01/06 21:01:19;;;;;;;10.80;6.97;;;2.70;99.90;;;;;;6338597;22;20404;-77
2021/01/06 21:03:47;;;;;;;11.60;7.35;;;2.70;99.90;;;;;;6339815;22;20527;-76
2021/01/06 21:06:13;;;;;;;11.32;7.22;;;2.70;99.90;;;;;;6340204;22;20043;-77
2021/01/06 21:08:40;;;;;;;11.65;7.25;;;2.60;99.90;;;;;;6336345;22;20141;-76
2021/01/06 21:11:07;;;;;;;10.95;6.90;;;2.60;99.90;;;;;;6338785;22;20023;-76
2021/01/06 21:13:34;;;;;;;10.90;7.25;;;2.60;99.90;;;;;;6338899;22;20586;-75
2021/01/06 21:16:01;;;;;;;9.68;6.40;;;2.50;99.90;;;;;;6337506;22;20018;-76
2021/01/06 21:18:28;;;;;;;9.82;6.70;;;2.50;99.90;;;;;;6336799;22;20167;-78
2021/01/06 21:20:55;;;;;;;21.50;12.48;;;2.50;99.90;;;;;;6337395;22;20064;-76
2021/01/06 21:23:22;;;;;;;13.60;7.80;;;2.70;99.90;;;;;;6337328;22;20019;-77
2021/01/06 21:25:49;;;;;;;10.52;6.97;;;2.60;99.90;;;;;;6340623;22;20019;-76
2021/01/06 21:28:15;;;;;;;11.10;7.03;;;2.50;99.90;;;;;;6342379;22;20517;-77
2021/01/06 21:30:42;;;;;;;10.68;6.85;;;2.50;99.90;;;;;;6338381;22;20023;-76
2021/01/06 21:33:08;;;;;;;10.25;6.55;;;2.40;99.90;;;;;;6336890;22;20090;-76
2021/01/06 21:35:35;;;;;;;10.73;6.60;;;2.40;99.90;;;;;;6336258;22;20053;-77
2021/01/06 21:38:02;;;;;;;10.88;6.70;;;2.40;99.90;;;;;;6336940;22;20029;-77
2021/01/06 21:40:29;;;;;;;9.77;6.15;;;2.30;99.90;;;;;;6337035;22;20089;-78
2021/01/06 21:42:56;;;;;;;11.50;6.72;;;2.40;99.90;;;;;;6336107;22;20152;-77
2021/01/06 21:45:22;;;;;;;10.70;6.50;;;2.40;99.90;;;;;;6336959;22;20098;-76
2021/01/06 21:47:49;;;;;;;10.35;7.07;;;2.40;99.90;;;;;;6336305;22;20014;-77
2021/01/06 21:50:15;;;;;;;10.20;6.60;;;2.40;99.90;;;;;;6335230;22;20058;-76
2021/01/06 21:52:42;;;;;;;10.02;6.43;;;2.40;99.90;;;;;;6334998;22;20110;-76
2021/01/06 21:55:11;;;;;;;8.93;5.82;;;2.40;99.90;;;;;;6334455;22;20018;-76
2021/01/06 21:57:37;;;;;;;11.10;6.45;;;2.40;99.90;;;;;;6334793;22;20515;-77
2021/01/06 22:00:05;;;;;;;10.70;6.53;;;2.40;99.90;;;;;;6340186;22;20110;-76
2021/01/06 22:02:32;;;;;;;8.98;5.97;;;2.50;99.90;;;;;;6344964;22;20046;-76
2021/01/06 22:04:59;;;;;;;10.00;6.32;;;2.40;99.90;;;;;;6289684;22;20025;-75
2021/01/06 22:07:26;;;;;;;10.80;6.60;;;2.30;99.90;;;;;;6336458;22;20023;-76
2021/01/06 22:09:54;;;;;;;12.82;6.85;;;2.30;99.90;;;;;;6336147;22;20019;-76
2021/01/06 22:12:21;;;;;;;10.77;6.53;;;2.40;99.90;;;;;;6336770;22;20063;-76
2021/01/06 22:14:48;;;;;;;9.88;5.90;;;2.30;99.90;;;;;;6336581;22;20066;-76
2021/01/06 22:17:14;;;;;;;9.75;5.97;;;2.30;99.90;;;;;;6339563;22;20093;-76
2021/01/06 22:19:41;;;;;;;10.63;6.05;;;2.10;99.90;;;;;;6333894;22;20033;-76
2021/01/06 22:22:08;;;;;;;8.75;6.00;;;2.20;99.90;;;;;;6333793;22;20015;-77
2021/01/06 22:24:34;;;;;;;8.98;5.90;;;2.20;99.90;;;;;;6337975;22;20093;-77
2021/01/06 22:27:01;;;;;;;9.40;6.10;;;2.20;99.90;;;;;;6342001;22;20156;-77
2021/01/06 22:29:28;;;;;;;9.45;5.78;;;2.20;99.90;;;;;;6342228;22;20074;-76
2021/01/06 22:31:55;;;;;;;9.57;5.93;;;2.10;99.90;;;;;;6339746;22;20098;-77
2021/01/06 22:34:23;;;;;;;10.18;5.78;;;2.20;99.90;;;;;;6339031;22;20054;-77
2021/01/06 22:36:49;;;;;;;8.13;4.85;;;2.20;99.90;;;;;;6342247;22;20022;-77
2021/01/06 22:39:16;;;;;;;8.93;5.47;;;2.20;99.90;;;;;;6341432;22;20066;-77
2021/01/06 22:41:43;;;;;;;8.25;5.35;;;2.20;99.90;;;;;;6337762;22;20031;-77
2021/01/06 22:44:10;;;;;;;8.80;5.63;;;2.20;99.90;;;;;;6338595;22;20582;-77
2021/01/06 22:46:37;;;;;;;8.52;5.50;;;2.20;99.90;;;;;;6339102;22;20118;-77
2021/01/06 22:49:04;;;;;;;8.32;5.13;;;2.20;99.90;;;;;;6338537;22;20143;-77
2021/01/06 22:51:30;;;;;;;7.55;4.80;;;2.30;99.90;;;;;;6338925;22;20651;-77
2021/01/06 22:53:57;;;;;;;8.70;5.45;;;2.30;99.90;;;;;;6339211;22;20025;-77
2021/01/06 22:56:32;;;;;;;8.27;4.88;;;2.30;99.90;;;;;;6343641;22;20094;-77
2021/01/06 22:59:00;;;;;;;8.85;5.40;;;2.30;99.90;;;;;;6344778;22;20030;-76
2021/01/06 23:01:27;;;;;;;10.00;5.72;;;2.30;99.90;;;;;;6337786;22;20022;-78
2021/01/06 23:03:55;;;;;;;8.75;5.53;;;2.20;99.90;;;;;;6336434;22;20113;-77
2021/01/06 23:06:22;;;;;;;8.18;4.85;;;2.30;99.90;;;;;;6338779;22;20098;-77
2021/01/06 23:08:49;;;;;;;8.82;5.32;;;2.20;99.90;;;;;;6338226;22;20015;-78